Time;durP1;ratioP1;P1;durP2;ratioP2;P2;SDS_P1;SDS_P2;PMS_P1;PMS_P2;Temp;Humidity;BMP_temperature;BMP_pressure;BME280_temperature;BME280_humidity;BME280_pressure;Samples;Min_cycle;Max_cycle;Signal;HPM_P1;HPM_P2
2022/11/13 00:00:32;;;;;;;39.13;19.53;;;14.00;99.90;;;;;;5074761;28;20205;-68
2022/11/13 00:03:20;;;;;;;31.90;18.80;;;14.00;99.90;;;;;;5074767;28;20728;-69
2022/11/13 00:06:08;;;;;;;41.87;19.10;;;14.10;99.90;;;;;;5074457;28;20196;-71
2022/11/13 00:08:55;;;;;;;31.80;18.27;;;14.20;99.90;;;;;;5074380;28;20570;-71
2022/11/13 00:11:42;;;;;;;37.20;20.23;;;14.20;99.90;;;;;;5074146;28;20204;-69
2022/11/13 00:14:29;;;;;;;36.37;18.30;;;14.20;99.90;;;;;;5074438;28;20207;-70
2022/11/13 00:17:16;;;;;;;39.43;19.20;;;14.20;99.90;;;;;;5074530;28;20278;-70
2022/11/13 00:20:06;;;;;;;40.37;19.70;;;14.20;99.90;;;;;;5073993;28;20247;-70
2022/11/13 00:22:53;;;;;;;34.60;19.40;;;14.10;99.90;;;;;;5074128;28;20733;-71
2022/11/13 00:25:40;;;;;;;37.97;18.50;;;14.10;99.90;;;;;;5073900;28;20253;-70
2022/11/13 00:28:27;;;;;;;34.43;19.23;;;14.20;99.90;;;;;;5073963;28;20314;-71
2022/11/13 00:31:15;;;;;;;35.57;19.80;;;14.10;99.90;;;;;;5074196;28;20208;-69
2022/11/13 00:34:02;;;;;;;36.67;19.67;;;14.10;99.90;;;;;;5073709;28;20205;-71
2022/11/13 00:37:11;;;;;;;32.87;19.83;;;14.10;99.90;;;;;;5074066;28;20242;-69
2022/11/13 00:39:57;;;;;;;31.90;19.30;;;14.20;99.90;;;;;;5073796;28;20289;-67
2022/11/13 00:42:45;;;;;;;39.17;20.27;;;14.20;99.90;;;;;;5074000;28;20343;-67
2022/11/13 00:45:32;;;;;;;35.07;18.60;;;14.20;99.90;;;;;;5073589;28;20223;-70
2022/11/13 00:48:19;;;;;;;33.60;19.90;;;14.20;99.90;;;;;;5073841;28;20206;-69
2022/11/13 00:51:07;;;;;;;37.67;18.13;;;14.20;99.90;;;;;;5073546;28;20209;-69
2022/11/13 00:53:55;;;;;;;33.87;18.97;;;14.20;99.90;;;;;;5073797;28;20561;-70
2022/11/13 00:56:42;;;;;;;31.90;18.43;;;14.20;99.90;;;;;;5073708;28;20672;-69
2022/11/13 00:59:28;;;;;;;38.90;20.50;;;14.10;99.90;;;;;;5073731;28;20274;-67
2022/11/13 01:02:15;;;;;;;30.77;18.77;;;14.20;99.90;;;;;;5073716;28;20208;-70
2022/11/13 01:05:03;;;;;;;35.30;18.67;;;14.10;99.90;;;;;;5073097;28;20241;-67
2022/11/13 01:07:50;;;;;;;34.47;18.27;;;14.10;99.90;;;;;;5073256;28;20327;-71
2022/11/13 01:10:43;;;;;;;30.70;19.33;;;14.20;99.90;;;;;;5073500;28;20201;-71
2022/11/13 01:13:31;;;;;;;38.17;18.87;;;14.20;99.90;;;;;;5073260;28;20615;-69
2022/11/13 01:16:21;;;;;;;25.53;17.10;;;14.20;99.90;;;;;;5073181;28;20567;-70
2022/11/13 01:19:08;;;;;;;34.60;17.30;;;14.20;99.90;;;;;;5073426;28;20208;-69
2022/11/13 01:21:55;;;;;;;29.27;17.97;;;14.20;99.90;;;;;;5073095;28;20250;-67
2022/11/13 01:24:42;;;;;;;33.73;17.47;;;14.10;99.90;;;;;;5072653;28;20246;-67
2022/11/13 01:27:30;;;;;;;36.87;17.77;;;14.10;99.90;;;;;;5073318;28;20262;-70
2022/11/13 01:30:18;;;;;;;37.50;18.83;;;14.10;99.90;;;;;;5073146;28;20562;-70
2022/11/13 01:33:05;;;;;;;27.87;17.10;;;14.00;99.90;;;;;;5073302;28;20231;-69
2022/11/13 01:35:52;;;;;;;33.57;17.37;;;14.10;99.90;;;;;;5073084;28;20227;-69
2022/11/13 01:38:39;;;;;;;29.60;16.43;;;14.10;99.90;;;;;;5072894;28;20247;-71
2022/11/13 01:41:29;;;;;;;31.27;17.00;;;14.10;99.90;;;;;;5073387;28;20856;-70
2022/11/13 01:44:19;;;;;;;32.43;16.97;;;14.20;99.90;;;;;;5072783;28;20563;-70
2022/11/13 01:47:06;;;;;;;28.33;17.47;;;14.20;99.90;;;;;;5073133;28;20355;-70
2022/11/13 01:49:56;;;;;;;29.33;17.00;;;14.20;99.90;;;;;;5072808;28;20333;-71
2022/11/13 01:52:43;;;;;;;28.63;18.53;;;14.20;99.90;;;;;;5073253;28;20212;-70
2022/11/13 01:55:30;;;;;;;31.30;18.27;;;14.20;99.90;;;;;;5072723;28;20678;-69
2022/11/13 01:58:17;;;;;;;36.17;18.33;;;14.20;99.90;;;;;;5073115;28;20281;-70
2022/11/13 02:01:06;;;;;;;30.80;17.70;;;14.20;99.90;;;;;;5073198;28;20208;-70
2022/11/13 02:03:53;;;;;;;32.53;17.97;;;14.10;99.90;;;;;;5072981;28;20295;-67
2022/11/13 02:06:42;;;;;;;31.80;17.93;;;14.20;99.90;;;;;;5072512;28;20228;-67
2022/11/13 02:09:35;;;;;;;27.13;16.10;;;14.20;99.90;;;;;;5073004;28;20605;-68
2022/11/13 02:12:29;;;;;;;30.33;17.20;;;14.20;99.90;;;;;;5072969;28;20213;-71
2022/11/13 02:15:16;;;;;;;25.67;16.20;;;14.20;99.90;;;;;;5072711;28;20205;-67
2022/11/13 02:18:05;;;;;;;28.17;14.73;;;14.20;99.90;;;;;;5072784;28;20290;-68
2022/11/13 02:21:00;;;;;;;27.43;17.17;;;14.10;99.90;;;;;;5072392;28;20820;-70
2022/11/13 02:23:53;;;;;;;26.67;17.80;;;14.10;99.90;;;;;;5072827;28;20246;-71
2022/11/13 02:26:43;;;;;;;34.27;20.47;;;14.20;99.90;;;;;;5072528;28;20239;-67
2022/11/13 02:29:30;;;;;;;31.03;19.50;;;14.20;99.90;;;;;;5072802;28;20204;-72
2022/11/13 02:32:17;;;;;;;34.90;18.87;;;14.10;99.90;;;;;;5072483;28;20242;-70
2022/11/13 02:35:04;;;;;;;35.87;20.03;;;14.10;99.90;;;;;;5073581;28;20607;-69
2022/11/13 02:37:51;;;;;;;32.73;19.23;;;14.10;99.90;;;;;;5076406;28;20216;-71
2022/11/13 02:40:38;;;;;;;38.47;19.77;;;14.20;99.90;;;;;;5076111;28;20251;-69
2022/11/13 02:43:27;;;;;;;36.47;20.33;;;14.10;99.90;;;;;;5076205;28;20204;-69
2022/11/13 02:46:14;;;;;;;32.80;18.97;;;14.10;99.90;;;;;;5075831;28;20241;-70
2022/11/13 02:49:01;;;;;;;36.10;19.50;;;14.10;99.90;;;;;;5076377;28;20302;-69
2022/11/13 02:51:48;;;;;;;32.07;20.70;;;14.10;99.90;;;;;;5075991;28;20204;-69
2022/11/13 02:54:34;;;;;;;44.30;19.20;;;14.10;99.90;;;;;;5076140;28;20209;-71
2022/11/13 02:57:22;;;;;;;30.63;18.90;;;14.10;99.90;;;;;;5076127;28;20212;-71
2022/11/13 03:00:12;;;;;;;37.63;21.07;;;14.10;99.90;;;;;;5076070;28;20283;-70
2022/11/13 03:03:00;;;;;;;33.60;19.03;;;14.10;99.90;;;;;;5075847;28;20222;-68
2022/11/13 03:05:49;;;;;;;36.90;19.87;;;14.10;99.90;;;;;;5075648;28;20240;-69
2022/11/13 03:08:36;;;;;;;30.53;17.80;;;14.10;99.90;;;;;;5075853;28;20201;-69
2022/11/13 03:11:24;;;;;;;29.13;17.50;;;14.10;99.90;;;;;;5075879;28;20294;-69
2022/11/13 03:14:10;;;;;;;27.87;16.77;;;14.10;99.90;;;;;;5075675;28;20205;-70
2022/11/13 03:16:59;;;;;;;27.47;16.67;;;14.10;99.90;;;;;;5075363;28;20202;-70
2022/11/13 03:19:46;;;;;;;27.13;16.40;;;14.10;99.90;;;;;;5074930;28;20589;-69
2022/11/13 03:22:33;;;;;;;25.83;16.83;;;14.10;99.90;;;;;;5075298;28;20561;-71
2022/11/13 03:25:20;;;;;;;23.20;14.93;;;14.10;99.90;;;;;;5075536;28;20228;-70
2022/11/13 03:28:07;;;;;;;28.33;15.50;;;14.10;99.90;;;;;;5075234;28;20567;-69
2022/11/13 03:30:53;;;;;;;23.03;14.40;;;14.10;99.90;;;;;;5075201;28;20354;-70
2022/11/13 03:33:42;;;;;;;29.00;14.47;;;14.10;99.90;;;;;;5075328;28;20216;-70
2022/11/13 03:36:29;;;;;;;23.23;13.87;;;14.10;99.90;;;;;;5075012;28;20201;-69
2022/11/13 03:39:16;;;;;;;20.80;14.03;;;14.10;99.90;;;;;;5075403;28;20212;-67
2022/11/13 03:42:04;;;;;;;23.20;15.13;;;14.00;99.90;;;;;;5075342;28;20199;-67
2022/11/13 03:44:51;;;;;;;24.27;13.47;;;14.10;99.90;;;;;;5075231;28;20271;-68
2022/11/13 03:47:38;;;;;;;18.47;12.10;;;14.10;99.90;;;;;;5074494;28;20692;-69
2022/11/13 03:50:26;;;;;;;23.40;12.50;;;14.00;99.90;;;;;;5074784;28;20777;-70
2022/11/13 03:53:13;;;;;;;23.97;13.30;;;14.10;99.90;;;;;;5074647;28;20266;-70
2022/11/13 03:56:00;;;;;;;24.97;14.87;;;14.00;99.90;;;;;;5074974;28;20208;-70
2022/11/13 03:58:48;;;;;;;22.67;16.97;;;14.10;99.90;;;;;;5074978;28;20211;-71
2022/11/13 04:01:35;;;;;;;27.80;16.73;;;14.10;99.90;;;;;;5074507;28;20640;-69
2022/11/13 04:04:22;;;;;;;30.27;18.00;;;14.00;99.90;;;;;;5074645;28;20279;-69
2022/11/13 04:07:11;;;;;;;28.40;18.40;;;14.10;99.90;;;;;;5074356;28;20741;-68
2022/11/13 04:09:58;;;;;;;32.13;17.37;;;14.00;99.90;;;;;;5074698;28;20559;-67
2022/11/13 04:12:45;;;;;;;33.37;17.80;;;14.10;99.90;;;;;;5074321;28;20251;-70
2022/11/13 04:15:32;;;;;;;29.57;18.07;;;14.00;99.90;;;;;;5074320;28;20686;-70
2022/11/13 04:18:19;;;;;;;28.70;17.47;;;14.00;99.90;;;;;;5074413;28;20286;-69
2022/11/13 04:21:06;;;;;;;31.10;17.00;;;14.00;99.90;;;;;;5073878;28;20584;-69
2022/11/13 04:23:54;;;;;;;25.00;16.03;;;14.00;99.90;;;;;;5074098;28;20204;-70
2022/11/13 04:26:41;;;;;;;28.93;16.47;;;14.00;99.90;;;;;;5073900;28;20242;-69
2022/11/13 04:29:28;;;;;;;26.30;16.93;;;14.00;99.90;;;;;;5073896;28;20224;-69
2022/11/13 04:32:16;;;;;;;24.50;16.07;;;14.00;99.90;;;;;;5074123;28;20278;-70
2022/11/13 04:35:03;;;;;;;26.73;16.13;;;14.00;99.90;;;;;;5073751;28;20221;-70
2022/11/13 04:37:50;;;;;;;23.10;15.23;;;14.00;99.90;;;;;;5074145;28;20204;-70
2022/11/13 04:40:38;;;;;;;26.27;15.30;;;14.00;99.90;;;;;;5073835;28;20252;-69
2022/11/13 04:43:24;;;;;;;24.20;15.37;;;14.00;99.90;;;;;;5073859;28;20267;-68
2022/11/13 04:46:11;;;;;;;23.30;13.40;;;14.00;99.90;;;;;;5073602;28;20228;-69
2022/11/13 04:48:58;;;;;;;21.50;13.13;;;13.90;99.90;;;;;;5074039;28;20230;-68
2022/11/13 04:51:45;;;;;;;23.40;14.57;;;13.90;99.90;;;;;;5073712;28;20217;-71
2022/11/13 04:54:32;;;;;;;21.43;13.90;;;13.90;99.90;;;;;;5073537;28;20567;-70
2022/11/13 04:57:21;;;;;;;25.37;13.13;;;14.00;99.90;;;;;;5073874;28;20203;-68
2022/11/13 05:00:09;;;;;;;19.87;13.07;;;14.00;99.90;;;;;;5073197;28;20736;-71
2022/11/13 05:02:57;;;;;;;22.57;13.53;;;14.00;99.90;;;;;;5073926;28;20198;-69
2022/11/13 05:05:43;;;;;;;22.50;12.37;;;14.00;99.90;;;;;;5073279;28;20212;-71
2022/11/13 05:08:31;;;;;;;19.73;12.63;;;14.00;99.90;;;;;;5073346;28;20220;-71
2022/11/13 05:11:18;;;;;;;23.10;12.00;;;14.00;99.90;;;;;;5073451;28;20273;-69
2022/11/13 05:14:06;;;;;;;25.67;11.63;;;14.00;99.90;;;;;;5073322;28;20334;-69
2022/11/13 05:16:53;;;;;;;19.00;11.13;;;14.00;99.90;;;;;;5073552;28;20567;-69
2022/11/13 05:19:40;;;;;;;20.43;12.57;;;14.00;99.90;;;;;;5073106;28;20279;-69
2022/11/13 05:22:27;;;;;;;19.37;11.50;;;14.00;99.90;;;;;;5073275;28;20200;-68
2022/11/13 05:25:14;;;;;;;17.20;12.20;;;13.90;99.90;;;;;;5073419;28;20205;-70
2022/11/13 05:28:01;;;;;;;19.67;10.40;;;13.90;99.90;;;;;;5073125;28;20233;-69
2022/11/13 05:30:49;;;;;;;20.10;11.60;;;14.00;99.90;;;;;;5073327;28;20733;-67
2022/11/13 05:33:36;;;;;;;18.90;10.90;;;14.00;99.90;;;;;;5073276;28;20208;-68
2022/11/13 05:36:23;;;;;;;14.83;10.67;;;14.00;99.90;;;;;;5073375;28;20208;-69
2022/11/13 05:39:11;;;;;;;14.90;10.23;;;14.00;99.90;;;;;;5073037;28;20220;-71
2022/11/13 05:41:58;;;;;;;19.90;11.63;;;14.00;99.90;;;;;;5073213;28;20219;-69
2022/11/13 05:44:45;;;;;;;22.07;11.17;;;14.00;99.90;;;;;;5072940;28;20250;-69
2022/11/13 05:47:34;;;;;;;16.87;11.03;;;14.00;99.90;;;;;;5073166;28;20286;-70
2022/11/13 05:50:21;;;;;;;18.73;11.20;;;14.00;99.90;;;;;;5073314;28;20208;-69
2022/11/13 05:53:08;;;;;;;18.87;10.93;;;14.00;99.90;;;;;;5073165;28;20207;-70
2022/11/13 05:55:55;;;;;;;15.80;10.93;;;14.00;99.90;;;;;;5073143;28;20236;-70
2022/11/13 05:58:42;;;;;;;17.33;10.80;;;14.00;99.90;;;;;;5073031;28;20621;-68
2022/11/13 06:01:31;;;;;;;20.50;11.43;;;14.00;99.90;;;;;;5073055;28;20208;-69
2022/11/13 06:04:20;;;;;;;17.40;10.90;;;14.00;99.90;;;;;;5072770;28;20561;-68
2022/11/13 06:07:06;;;;;;;18.87;10.80;;;14.00;99.90;;;;;;5072831;28;20249;-70
2022/11/13 06:09:53;;;;;;;19.97;10.67;;;14.00;99.90;;;;;;5073782;28;20642;-69
2022/11/13 06:12:40;;;;;;;24.87;11.17;;;13.90;99.90;;;;;;5076958;28;20196;-67
2022/11/13 06:15:27;;;;;;;18.60;11.07;;;13.90;99.90;;;;;;5076599;28;20289;-71
2022/11/13 06:18:14;;;;;;;19.67;13.53;;;13.90;99.90;;;;;;5076524;28;20224;-71
2022/11/13 06:21:04;;;;;;;23.03;13.87;;;14.00;99.90;;;;;;5076209;28;20225;-71
2022/11/13 06:23:52;;;;;;;23.77;14.33;;;14.00;99.90;;;;;;5076538;28;20269;-71
2022/11/13 06:26:38;;;;;;;23.40;15.07;;;14.00;99.90;;;;;;5076335;28;20195;-71
2022/11/13 06:29:25;;;;;;;24.97;14.87;;;14.00;99.90;;;;;;5076556;28;20196;-71
2022/11/13 06:32:12;;;;;;;28.53;16.50;;;14.00;99.90;;;;;;5076495;28;20291;-70
2022/11/13 06:34:59;;;;;;;25.60;15.47;;;13.90;99.90;;;;;;5076502;28;20280;-71
2022/11/13 06:37:47;;;;;;;23.87;17.20;;;14.00;99.90;;;;;;5076398;28;20250;-70
2022/11/13 06:40:34;;;;;;;25.17;17.20;;;13.90;99.90;;;;;;5076270;28;20665;-67
2022/11/13 06:43:21;;;;;;;30.47;17.73;;;14.00;99.90;;;;;;5076114;28;20207;-71
2022/11/13 06:46:12;;;;;;;26.87;15.33;;;14.00;99.90;;;;;;5075934;28;20682;-69
2022/11/13 06:48:59;;;;;;;27.87;14.83;;;13.90;99.90;;;;;;5076267;28;20290;-69
2022/11/13 06:51:46;;;;;;;22.87;13.97;;;13.90;99.90;;;;;;5075778;28;20249;-71
2022/11/13 06:54:34;;;;;;;19.77;11.87;;;13.90;99.90;;;;;;5076342;28;20208;-70
2022/11/13 06:57:21;;;;;;;19.43;13.17;;;14.00;99.90;;;;;;5076086;28;20199;-71
2022/11/13 07:00:10;;;;;;;23.70;13.30;;;13.90;99.90;;;;;;5075830;28;20206;-71
2022/11/13 07:02:57;;;;;;;21.97;14.40;;;14.00;99.90;;;;;;5075672;28;20327;-70
2022/11/13 07:05:44;;;;;;;20.67;13.53;;;14.00;99.90;;;;;;5075827;28;20204;-71
2022/11/13 07:08:32;;;;;;;18.03;12.87;;;14.00;99.90;;;;;;5075623;28;20278;-70
2022/11/13 07:11:22;;;;;;;25.47;12.63;;;14.00;99.90;;;;;;5076053;28;20682;-69
2022/11/13 07:14:11;;;;;;;20.13;11.10;;;13.90;99.90;;;;;;5075577;28;20304;-69
2022/11/13 07:16:58;;;;;;;21.90;13.17;;;13.90;99.90;;;;;;5069517;28;20212;-77
2022/11/13 07:19:56;;;;;;;17.67;12.60;;;13.80;99.90;;;;;;5057566;28;20368;-79
2022/11/13 07:22:43;;;;;;;18.23;11.57;;;13.90;99.90;;;;;;5054502;28;20193;-69
2022/11/13 07:25:31;;;;;;;20.90;13.87;;;13.90;99.90;;;;;;5055388;28;20267;-71
2022/11/13 07:28:19;;;;;;;21.80;11.60;;;13.90;99.90;;;;;;5055210;28;20235;-71
2022/11/13 07:31:07;;;;;;;22.77;13.73;;;13.90;99.90;;;;;;5054761;28;20344;-68
2022/11/13 07:33:53;;;;;;;19.63;13.03;;;14.00;99.90;;;;;;5055008;28;20209;-70
2022/11/13 07:36:40;;;;;;;24.30;14.20;;;14.00;99.90;;;;;;5054977;28;20710;-67
2022/11/13 07:39:27;;;;;;;19.70;12.67;;;14.10;99.90;;;;;;5055086;28;20201;-71
2022/11/13 07:42:14;;;;;;;26.53;14.27;;;14.10;99.90;;;;;;5055217;28;20212;-72
2022/11/13 07:45:03;;;;;;;24.83;16.03;;;14.20;99.90;;;;;;5054467;28;20206;-70
2022/11/13 07:47:50;;;;;;;22.13;15.40;;;14.20;99.90;;;;;;5066674;28;20310;-68
2022/11/13 07:50:38;;;;;;;25.20;17.40;;;14.20;99.90;;;;;;5075513;28;20212;-72
2022/11/13 07:53:25;;;;;;;27.00;17.00;;;14.20;99.90;;;;;;5074830;28;20283;-73
2022/11/13 07:56:12;;;;;;;35.70;20.73;;;14.20;99.90;;;;;;5074939;28;20683;-70
2022/11/13 07:59:03;;;;;;;28.87;20.83;;;14.20;99.90;;;;;;5074494;28;20595;-70
2022/11/13 08:01:52;;;;;;;35.80;22.67;;;14.30;99.90;;;;;;5074666;28;20205;-70
2022/11/13 08:04:39;;;;;;;28.60;20.93;;;14.20;99.90;;;;;;5074497;28;20227;-70
2022/11/13 08:07:26;;;;;;;48.60;35.33;;;14.30;99.90;;;;;;5074372;28;20757;-71
2022/11/13 08:10:13;;;;;;;32.17;21.90;;;14.40;99.90;;;;;;5074411;28;20196;-71
2022/11/13 08:13:02;;;;;;;29.73;19.43;;;14.40;99.90;;;;;;5074733;28;20199;-71
2022/11/13 08:15:48;;;;;;;37.73;25.03;;;14.40;99.90;;;;;;5073549;28;20223;-70
2022/11/13 08:18:36;;;;;;;26.97;17.77;;;14.40;99.90;;;;;;5074067;28;20700;-73
2022/11/13 08:21:23;;;;;;;45.03;32.10;;;14.40;99.90;;;;;;5074152;28;20235;-70
2022/11/13 08:24:10;;;;;;;30.40;21.67;;;14.40;99.90;;;;;;5073934;28;20274;-69
2022/11/13 08:26:57;;;;;;;63.87;35.83;;;14.40;99.90;;;;;;5074124;28;20208;-71
2022/11/13 08:29:44;;;;;;;121.17;74.57;;;14.40;99.90;;;;;;5073772;28;20693;-71
2022/11/13 08:32:31;;;;;;;107.63;65.93;;;14.40;99.90;;;;;;5073781;28;20242;-71
2022/11/13 08:35:20;;;;;;;104.37;68.00;;;14.40;99.90;;;;;;5071970;28;20540;-70
2022/11/13 08:38:12;;;;;;;70.37;46.60;;;14.50;99.90;;;;;;5073637;28;20203;-70
2022/11/13 08:40:59;;;;;;;63.33;43.77;;;14.50;99.90;;;;;;5074145;28;20214;-68
2022/11/13 08:43:51;;;;;;;39.63;26.97;;;14.50;99.90;;;;;;5073031;28;20192;-68
2022/11/13 08:46:39;;;;;;;34.50;23.83;;;14.50;99.90;;;;;;5074149;28;20674;-68
2022/11/13 08:49:25;;;;;;;56.60;38.90;;;14.40;99.90;;;;;;5073399;28;20234;-69
2022/11/13 08:52:15;;;;;;;45.67;33.53;;;14.40;99.90;;;;;;5073444;28;20212;-68
2022/11/13 08:55:02;;;;;;;51.57;34.67;;;14.50;99.90;;;;;;5073770;28;20220;-69
2022/11/13 08:57:49;;;;;;;45.47;28.77;;;14.60;99.90;;;;;;5073472;28;20202;-66
2022/11/13 09:00:36;;;;;;;45.97;28.80;;;14.70;99.90;;;;;;5073858;28;20213;-68
2022/11/13 09:03:23;;;;;;;44.50;30.37;;;14.70;99.90;;;;;;5073366;28;20211;-70
2022/11/13 09:06:10;;;;;;;43.10;26.63;;;14.60;99.90;;;;;;5073336;28;20212;-71
2022/11/13 09:08:59;;;;;;;36.87;25.57;;;14.60;99.90;;;;;;5073597;28;20233;-71
2022/11/13 09:11:46;;;;;;;35.93;24.27;;;14.60;99.90;;;;;;5073330;28;20764;-69
2022/11/13 09:14:33;;;;;;;36.87;25.17;;;14.60;99.90;;;;;;5073622;28;20199;-67
2022/11/13 09:17:20;;;;;;;41.93;28.37;;;14.70;99.90;;;;;;5073471;28;20208;-67
2022/11/13 09:20:08;;;;;;;33.10;22.33;;;14.80;99.90;;;;;;5073103;28;20243;-68
2022/11/13 09:22:59;;;;;;;30.77;21.60;;;14.90;99.90;;;;;;5073406;28;20571;-67
2022/11/13 09:25:48;;;;;;;37.97;23.63;;;14.90;99.90;;;;;;5073526;28;20311;-70
2022/11/13 09:28:36;;;;;;;30.67;20.77;;;14.80;99.90;;;;;;5073062;28;20224;-71
2022/11/13 09:31:23;;;;;;;25.43;18.60;;;14.80;99.90;;;;;;5073079;28;20205;-69
2022/11/13 09:34:10;;;;;;;28.10;18.80;;;14.80;99.90;;;;;;5073278;28;20212;-71
2022/11/13 09:36:57;;;;;;;26.33;17.27;;;14.80;99.90;;;;;;5072818;28;20319;-67
2022/11/13 09:39:44;;;;;;;23.77;15.07;;;14.80;99.90;;;;;;5072937;28;20564;-70
2022/11/13 09:42:34;;;;;;;23.50;15.03;;;14.90;99.90;;;;;;5072980;28;20196;-68
2022/11/13 09:45:21;;;;;;;23.40;15.83;;;14.90;99.90;;;;;;5072643;28;20200;-68
2022/11/13 09:48:23;;;;;;;38.60;26.47;;;15.00;99.90;;;;;;5073090;28;20192;-72
2022/11/13 09:51:15;;;;;;;48.53;32.60;;;15.00;99.90;;;;;;5073168;28;20252;-71
2022/11/13 09:54:05;;;;;;;47.93;32.17;;;15.20;99.90;;;;;;5072823;28;20571;-71
2022/11/13 09:57:00;;;;;;;46.30;30.60;;;15.30;99.90;;;;;;5073182;28;20236;-71
2022/11/13 09:59:54;;;;;;;37.50;23.53;;;15.30;99.90;;;;;;5072848;28;20694;-68
2022/11/13 10:02:55;;;;;;;31.80;20.50;;;15.20;99.90;;;;;;5072764;28;20197;-67
2022/11/13 10:05:51;;;;;;;29.17;20.57;;;15.20;99.90;;;;;;5072933;28;20196;-71
2022/11/13 10:08:49;;;;;;;30.90;21.30;;;15.10;99.90;;;;;;5072767;28;20585;-67
2022/11/13 10:11:40;;;;;;;22.27;16.00;;;15.20;99.90;;;;;;5072703;28;20204;-69
2022/11/13 10:14:31;;;;;;;18.97;12.87;;;15.10;99.90;;;;;;5072994;28;20212;-70
2022/11/13 10:17:24;;;;;;;21.07;12.27;;;15.10;99.90;;;;;;5072689;28;20201;-69
2022/11/13 10:20:15;;;;;;;21.10;13.23;;;15.20;99.90;;;;;;5072357;28;20308;-70
2022/11/13 10:23:09;;;;;;;16.80;12.37;;;15.30;99.90;;;;;;5072526;28;20247;-71
2022/11/13 10:26:00;;;;;;;25.33;15.30;;;15.30;99.90;;;;;;5072866;28;20204;-69
2022/11/13 10:28:49;;;;;;;19.57;13.67;;;15.40;99.90;;;;;;5072548;28;20219;-68
2022/11/13 10:31:45;;;;;;;21.10;14.40;;;15.40;99.90;;;;;;5072998;28;20207;-72
2022/11/13 10:34:34;;;;;;;22.83;14.87;;;15.30;99.90;;;;;;5072536;28;20200;-71
2022/11/13 10:37:33;;;;;;;17.67;10.87;;;15.30;99.90;;;;;;5072588;28;20284;-71
2022/11/13 10:40:25;;;;;;;15.83;9.17;;;15.30;99.40;;;;;;5072527;28;20197;-72
2022/11/13 10:43:17;;;;;;;166.13;49.03;;;15.30;98.40;;;;;;5072669;28;20689;-70
2022/11/13 10:46:06;;;;;;;13.17;7.27;;;15.20;95.70;;;;;;5072494;28;20254;-69
2022/11/13 10:48:53;;;;;;;85.23;29.20;;;15.10;94.40;;;;;;5072162;28;20236;-67
2022/11/13 10:51:41;;;;;;;70.10;24.93;;;15.10;96.00;;;;;;5072545;28;20681;-68
2022/11/13 10:54:30;;;;;;;19.63;8.93;;;15.10;95.20;;;;;;5072433;28;20289;-68
2022/11/13 10:57:28;;;;;;;7.87;4.70;;;15.10;94.90;;;;;;5073799;28;20259;-68
2022/11/13 11:00:21;;;;;;;10.17;5.23;;;15.00;93.40;;;;;;5075999;28;20199;-71
2022/11/13 11:03:09;;;;;;;6.47;4.27;;;14.90;92.30;;;;;;5076019;28;20654;-71
2022/11/13 11:05:59;;;;;;;7.03;4.37;;;15.00;93.10;;;;;;5075921;28;20214;-70
2022/11/13 11:08:47;;;;;;;9.67;4.23;;;15.20;96.10;;;;;;5075633;28;20217;-70
2022/11/13 11:14:42;;;;;;;5.90;4.30;;;15.30;92.50;;;;;;5075500;28;20229;-69
2022/11/13 11:17:37;;;;;;;7.57;4.60;;;15.30;91.80;;;;;;5075638;28;20697;-71
2022/11/13 11:20:35;;;;;;;10.40;3.97;;;15.40;92.00;;;;;;5075366;28;20232;-68
2022/11/13 11:23:29;;;;;;;25.97;8.77;;;15.40;91.90;;;;;;5075370;28;20211;-71
2022/11/13 11:26:24;;;;;;;33.30;12.17;;;15.50;93.50;;;;;;5075590;28;20216;-70
2022/11/13 11:29:17;;;;;;;25.10;9.33;;;15.50;91.80;;;;;;5075451;28;20230;-70
2022/11/13 11:32:11;;;;;;;16.93;8.17;;;15.50;92.80;;;;;;5075135;28;20694;-67
2022/11/13 11:35:06;;;;;;;15.67;7.67;;;15.60;94.30;;;;;;5075095;28;20257;-70
2022/11/13 11:37:59;;;;;;;30.17;13.53;;;15.60;91.80;;;;;;5075390;28;20636;-70
2022/11/13 11:40:50;;;;;;;29.07;10.60;;;15.60;92.30;;;;;;5075394;28;20212;-69
2022/11/13 11:43:43;;;;;;;13.97;6.30;;;15.50;91.30;;;;;;5074941;28;20292;-70
2022/11/13 11:46:31;;;;;;;8.80;5.67;;;15.50;92.90;;;;;;5074853;28;20200;-68
2022/11/13 11:49:20;;;;;;;8.63;4.50;;;15.40;90.90;;;;;;5075095;28;20298;-69
2022/11/13 11:52:20;;;;;;;7.43;4.20;;;15.30;90.80;;;;;;5074777;28;20660;-69
2022/11/13 11:55:27;;;;;;;7.73;5.23;;;15.10;90.80;;;;;;5075178;28;20200;-70
2022/11/13 11:58:23;;;;;;;8.63;4.57;;;15.10;91.40;;;;;;5074835;28;20346;-70
2022/11/13 12:01:19;;;;;;;8.77;4.30;;;15.10;91.70;;;;;;5074909;28;20560;-70
2022/11/13 12:04:26;;;;;;;7.87;4.47;;;15.10;90.80;;;;;;5074523;28;20569;-70
2022/11/13 12:07:26;;;;;;;5.90;3.60;;;14.90;91.60;;;;;;5074448;28;20205;-69
2022/11/13 12:10:25;;;;;;;5.90;3.70;;;14.80;91.70;;;;;;5074513;28;20701;-69
2022/11/13 12:13:26;;;;;;;20.50;7.93;;;14.70;92.50;;;;;;5074819;28;20199;-70
2022/11/13 12:16:20;;;;;;;5.73;3.73;;;14.70;93.40;;;;;;5074313;28;20234;-70
2022/11/13 12:19:21;;;;;;;6.37;3.80;;;14.80;92.00;;;;;;5074360;28;20220;-68
2022/11/13 12:22:21;;;;;;;10.27;5.10;;;14.80;91.70;;;;;;5074363;28;20258;-70
2022/11/13 12:25:19;;;;;;;13.30;6.13;;;14.70;92.60;;;;;;5074100;28;20196;-67
2022/11/13 12:28:15;;;;;;;7.17;4.43;;;14.60;93.10;;;;;;5074170;28;20217;-67
2022/11/13 12:31:11;;;;;;;19.97;8.70;;;14.70;92.70;;;;;;5073810;28;20598;-68
2022/11/13 12:34:09;;;;;;;6.97;4.83;;;14.80;92.10;;;;;;5074150;28;20554;-69
2022/11/13 12:36:58;;;;;;;8.30;4.53;;;14.80;91.40;;;;;;5074135;28;20266;-68
2022/11/13 12:39:54;;;;;;;14.17;6.90;;;14.80;91.10;;;;;;5073918;28;20211;-70
2022/11/13 12:42:48;;;;;;;11.57;5.43;;;14.70;91.80;;;;;;5073863;28;20301;-69
2022/11/13 12:45:49;;;;;;;11.27;6.23;;;14.80;91.60;;;;;;5073774;28;20683;-69
2022/11/13 12:48:39;;;;;;;23.63;9.67;;;14.80;91.90;;;;;;5073583;28;20220;-69
2022/11/13 12:51:39;;;;;;;10.53;6.00;;;14.80;91.80;;;;;;5073606;28;20598;-71
2022/11/13 12:54:30;;;;;;;8.43;4.63;;;14.80;90.80;;;;;;5073803;28;20224;-70
2022/11/13 12:57:23;;;;;;;6.90;4.10;;;14.70;91.00;;;;;;5073491;28;20202;-69
2022/11/13 13:00:26;;;;;;;16.40;7.20;;;14.70;91.40;;;;;;5073560;28;20200;-68
2022/11/13 13:03:43;;;;;;;6.63;5.40;;;14.70;91.60;;;;;;5073362;28;20200;-71
2022/11/13 13:06:49;;;;;;;12.23;7.50;;;14.70;91.10;;;;;;5073415;28;20294;-71
2022/11/13 13:09:49;;;;;;;20.80;10.07;;;14.70;92.30;;;;;;5073438;28;20231;-71
2022/11/13 13:12:46;;;;;;;36.40;12.90;;;14.80;92.50;;;;;;5073517;28;20195;-70
2022/11/13 13:15:36;;;;;;;15.70;8.17;;;14.90;91.30;;;;;;5073219;28;20682;-70
2022/11/13 13:18:29;;;;;;;34.30;15.53;;;15.00;90.90;;;;;;5073339;28;20201;-71
2022/11/13 13:21:18;;;;;;;7.00;5.03;;;15.00;91.10;;;;;;5072547;28;20233;-70
2022/11/13 13:24:30;;;;;;;5.40;4.37;;;15.00;90.00;;;;;;5073434;28;20565;-71
2022/11/13 13:27:25;;;;;;;7.40;4.87;;;14.80;90.60;;;;;;5072978;28;20551;-71
2022/11/13 13:30:21;;;;;;;4.80;4.40;;;14.70;91.60;;;;;;5072941;28;20270;-72
2022/11/13 13:33:23;;;;;;;8.73;4.50;;;14.70;90.80;;;;;;5073248;28;20207;-71
2022/11/13 13:36:20;;;;;;;9.50;5.80;;;14.70;90.80;;;;;;5073352;28;20199;-71
2022/11/13 13:39:22;;;;;;;7.30;5.50;;;14.70;90.40;;;;;;5073211;28;20200;-70
2022/11/13 13:42:29;;;;;;;9.00;5.50;;;14.70;90.10;;;;;;5073314;28;20565;-71
2022/11/13 13:45:27;;;;;;;9.27;5.60;;;14.70;90.40;;;;;;5072844;28;20691;-71
2022/11/13 13:48:19;;;;;;;9.83;5.70;;;14.70;90.60;;;;;;5073008;28;20205;-72
2022/11/13 13:51:16;;;;;;;7.70;4.97;;;14.80;89.80;;;;;;5072940;28;20290;-70
2022/11/13 13:54:07;;;;;;;8.77;4.70;;;14.80;90.00;;;;;;5073171;28;20210;-69
2022/11/13 13:56:57;;;;;;;9.40;6.07;;;14.80;90.90;;;;;;5072991;28;20312;-70
2022/11/13 13:59:47;;;;;;;9.90;5.03;;;14.90;91.50;;;;;;5072810;28;20209;-71
2022/11/13 14:02:34;;;;;;;14.70;7.93;;;14.90;88.50;;;;;;5073059;28;20220;-72
2022/11/13 14:05:27;;;;;;;7.67;5.30;;;14.90;90.30;;;;;;5072914;28;20204;-71
2022/11/13 14:08:17;;;;;;;10.30;5.20;;;14.80;88.40;;;;;;5072542;28;20200;-69
2022/11/13 14:11:17;;;;;;;8.70;5.30;;;14.70;88.90;;;;;;5072712;28;20823;-68
2022/11/13 14:14:17;;;;;;;11.57;5.20;;;14.60;89.40;;;;;;5072971;28;20689;-69
2022/11/13 14:17:04;;;;;;;9.43;5.20;;;14.50;90.70;;;;;;5072572;28;20252;-67
2022/11/13 14:19:52;;;;;;;8.83;7.40;;;14.50;90.90;;;;;;5072516;28;20716;-69
2022/11/13 14:22:40;;;;;;;8.33;5.80;;;14.40;90.30;;;;;;5072583;28;20218;-70
2022/11/13 14:25:30;;;;;;;15.00;6.13;;;14.40;91.10;;;;;;5072958;28;20208;-71
2022/11/13 14:28:19;;;;;;;9.90;5.93;;;14.40;90.90;;;;;;5072822;28;20292;-67